Time;durP1;ratioP1;P1;durP2;ratioP2;P2;SDS_P1;SDS_P2;PMS_P1;PMS_P2;Temp;Humidity;BMP_temperature;BMP_pressure;BME280_temperature;BME280_humidity;BME280_pressure;Samples;Min_cycle;Max_cycle;Signal;HPM_P1;HPM_P2
2021/06/23 00:02:32;;;;;;;9.70;7.22;;;;;;;19.88;70.46;100255.52;2032067;87;29370;-57
2021/06/23 00:05:34;;;;;;;11.80;7.40;;;;;;;19.85;70.51;100257.14;2036467;87;27639;-59
2021/06/23 00:08:36;;;;;;;9.60;6.87;;;;;;;19.85;70.60;100258.50;2036402;87;27976;-58
2021/06/23 00:11:45;;;;;;;10.38;7.55;;;;;;;19.87;70.68;100257.02;2012069;87;31171;-58
2021/06/23 00:14:47;;;;;;;12.78;6.80;;;;;;;19.91;70.76;100268.47;1994370;89;33814;-59
2021/06/23 00:17:49;;;;;;;9.75;7.70;;;;;;;19.95;70.72;100269.92;1994590;89;29390;-59
2021/06/23 00:20:51;;;;;;;9.88;7.85;;;;;;;19.96;70.68;100272.50;2005451;87;27769;-57
2021/06/23 00:23:52;;;;;;;10.28;7.62;;;;;;;19.96;70.64;100268.93;1998966;87;28967;-59
2021/06/23 00:26:54;;;;;;;11.70;7.55;;;;;;;19.92;70.59;100268.84;1985318;89;32168;-57
2021/06/23 00:29:56;;;;;;;10.38;8.55;;;;;;;19.88;70.70;100265.03;1985448;87;33771;-59
2021/06/23 00:33:08;;;;;;;13.30;8.25;;;;;;;19.86;70.64;100265.62;1959914;90;29404;-58
2021/06/23 00:36:12;;;;;;;14.15;8.58;;;;;;;19.85;70.77;100266.66;1958951;90;27518;-58
2021/06/23 00:39:14;;;;;;;11.30;8.55;;;;;;;19.83;70.70;100260.49;1960090;90;28715;-58
2021/06/23 00:42:16;;;;;;;10.53;8.25;;;;;;;19.82;70.77;100263.33;2011374;87;31100;-57
2021/06/23 00:45:18;;;;;;;11.33;8.70;;;;;;;19.82;70.86;100264.69;2026520;87;33733;-58
2021/06/23 00:48:29;;;;;;;12.07;9.80;;;;;;;19.84;70.91;100265.41;2026639;87;29390;-58
2021/06/23 00:51:31;;;;;;;14.90;9.48;;;;;;;19.85;71.00;100263.06;2007167;87;27624;-58
2021/06/23 00:54:33;;;;;;;11.70;8.78;;;;;;;19.79;70.86;100262.23;1985349;89;28636;-58
2021/06/23 00:57:38;;;;;;;13.05;9.45;;;;;;;19.78;70.95;100263.23;1985475;89;31068;-58
2021/06/23 01:00:41;;;;;;;15.95;9.90;;;;;;;19.77;70.97;100259.67;1992624;87;34588;-58
2021/06/23 01:03:43;;;;;;;11.20;9.00;;;;;;;19.76;70.92;100257.10;2026441;87;29385;-58
2021/06/23 01:06:45;;;;;;;11.22;8.83;;;;;;;19.77;70.97;100258.83;2026966;87;27440;-58
2021/06/23 01:09:47;;;;;;;20.00;9.80;;;;;;;19.75;70.92;100241.27;2026855;87;29465;-57
2021/06/23 01:13:15;;;;;;;13.68;9.68;;;;;;;19.76;70.94;100236.72;1990360;87;31053;-58
2021/06/23 01:16:18;;;;;;;22.75;10.50;;;;;;;19.74;70.93;100232.76;1987575;87;33107;-58
2021/06/23 01:19:21;;;;;;;15.65;11.55;;;;;;;19.77;71.09;100228.92;1985459;89;29309;-57
2021/06/23 01:22:24;;;;;;;20.60;11.83;;;;;;;19.76;71.00;100226.69;1996329;87;27523;-58
2021/06/23 01:25:26;;;;;;;14.78;11.65;;;;;;;19.73;70.94;100225.59;2032085;87;29537;-58
2021/06/23 01:28:27;;;;;;;14.73;11.48;;;;;;;19.70;70.92;100237.61;2032400;87;31135;-59
2021/06/23 01:31:29;;;;;;;18.65;11.57;;;;;;;19.67;71.01;100242.47;2015056;87;33915;-60
2021/06/23 01:34:31;;;;;;;17.37;11.30;;;;;;;19.62;70.96;100240.14;1988226;89;29472;-59
2021/06/23 01:37:34;;;;;;;19.35;11.35;;;;;;;19.61;70.99;100253.37;1988326;89;27566;-57
2021/06/23 01:40:36;;;;;;;19.90;10.98;;;;;;;19.63;71.00;100260.05;1990635;87;28643;-58
2021/06/23 01:43:38;;;;;;;22.00;12.73;;;;;;;19.63;71.00;100266.84;1988173;89;31070;-58
2021/06/23 01:46:39;;;;;;;15.58;12.18;;;;;;;19.64;71.04;100276.20;1988170;89;33241;-59
2021/06/23 01:49:41;;;;;;;15.83;11.90;;;;;;;19.67;71.12;100278.66;1988311;89;29935;-59
2021/06/23 01:52:44;;;;;;;18.90;12.33;;;;;;;19.66;70.93;100287.80;2021273;87;27662;-60
2021/06/23 01:55:47;;;;;;;20.27;12.23;;;;;;;19.66;70.89;100291.03;2032502;87;28649;-60
2021/06/23 01:58:49;;;;;;;19.12;11.38;;;;;;;19.65;70.92;100295.59;2032498;87;31973;-60
2021/06/23 02:02:24;;;;;;;20.32;11.88;;;;;;;19.66;70.88;100299.19;1988329;88;32520;-60
2021/06/23 02:05:45;;;;;;;16.32;11.88;;;;;;;19.63;70.86;100289.94;1987987;89;29340;-58
2021/06/23 02:09:42;;;;;;;17.48;11.10;;;;;;;19.65;70.91;100294.74;1988148;89;27523;-59
2021/06/23 02:13:06;;;;;;;25.77;13.98;;;;;;;19.64;70.93;100293.86;2019837;87;29807;-58
2021/06/23 02:16:11;;;;;;;15.28;11.57;;;;;;;19.63;70.89;100296.73;2032270;87;31021;-58
2021/06/23 02:19:13;;;;;;;15.53;11.08;;;;;;;19.59;70.91;100292.92;2032447;87;33183;-59
2021/06/23 02:22:24;;;;;;;18.20;10.55;;;;;;;19.58;70.88;100303.42;2008201;87;28949;-58
2021/06/23 02:25:26;;;;;;;11.93;10.58;;;;;;;19.61;70.90;100300.08;1985857;87;27603;-59
2021/06/23 02:28:28;;;;;;;16.25;10.78;;;;;;;19.63;70.86;100296.22;1985377;89;28626;-60
2021/06/23 02:31:31;;;;;;;18.95;10.65;;;;;;;19.58;70.63;100294.42;1979615;87;31131;-59
2021/06/23 02:34:33;;;;;;;20.50;11.85;;;;;;;19.54;70.74;100295.17;2026581;87;33105;-58
2021/06/23 02:37:36;;;;;;;20.30;10.95;;;;;;;19.50;70.76;100293.74;2026735;87;29324;-59
2021/06/23 02:40:38;;;;;;;17.25;10.85;;;;;;;19.49;70.80;100288.42;2026650;87;27500;-59
2021/06/23 02:43:40;;;;;;;17.92;12.07;;;;;;;19.48;70.75;100293.02;1986933;87;28725;-59
2021/06/23 02:46:42;;;;;;;19.95;11.30;;;;;;;19.47;70.82;100298.08;1985338;89;31029;-59
2021/06/23 02:49:46;;;;;;;14.23;9.40;;;;;;;19.46;70.78;100298.19;1990866;87;34055;-59
2021/06/23 02:52:49;;;;;;;16.85;10.48;;;;;;;19.47;70.80;100299.92;2026579;87;29531;-60
2021/06/23 02:55:51;;;;;;;15.70;10.28;;;;;;;19.48;70.75;100298.92;2026644;87;27618;-59
2021/06/23 02:58:52;;;;;;;19.80;10.00;;;;;;;19.45;70.73;100304.14;2026603;87;28625;-67
2021/06/23 03:01:54;;;;;;;17.15;10.75;;;;;;;19.43;70.73;100307.00;1991704;87;31036;-60
2021/06/23 03:04:57;;;;;;;18.02;11.30;;;;;;;19.42;70.76;100307.12;1969252;89;33718;-60
2021/06/23 03:07:59;;;;;;;19.60;10.90;;;;;;;19.40;70.69;100311.82;1985481;89;29291;-59
2021/06/23 03:11:02;;;;;;;18.35;9.45;;;;;;;19.35;70.71;100320.38;2007276;87;27641;-59
2021/06/23 03:14:06;;;;;;;13.85;9.48;;;;;;;19.34;70.76;100321.38;2026309;87;28804;-59
2021/06/23 03:17:07;;;;;;;23.85;12.07;;;;;;;19.35;70.77;100323.09;2026572;87;31013;-61
2021/06/23 03:20:11;;;;;;;15.72;11.40;;;;;;;19.38;70.75;100316.05;2017043;87;32953;-59
2021/06/23 03:23:13;;;;;;;15.05;9.65;;;;;;;19.38;70.66;100316.52;1990555;89;29330;-60
2021/06/23 03:26:16;;;;;;;18.27;10.53;;;;;;;19.40;70.61;100326.28;1993741;89;27511;-59
2021/06/23 03:29:32;;;;;;;15.65;9.50;;;;;;;19.41;70.60;100333.44;1993800;89;28681;-60
2021/06/23 03:32:34;;;;;;;23.10;11.65;;;;;;;19.40;70.50;100336.27;1978492;87;31159;-59
2021/06/23 03:35:36;;;;;;;13.15;8.35;;;;;;;19.41;70.61;100343.43;2038534;87;33099;-59
2021/06/23 03:38:37;;;;;;;16.90;9.10;;;;;;;19.42;70.56;100354.19;2038251;86;29409;-59
2021/06/23 03:41:39;;;;;;;22.90;9.68;;;;;;;19.43;70.52;100355.03;2006866;87;27562;-58
2021/06/23 03:44:41;;;;;;;20.25;9.23;;;;;;;19.46;70.54;100363.41;1993704;89;29743;-61
2021/06/23 03:47:43;;;;;;;18.92;9.38;;;;;;;19.49;70.48;100363.14;2014977;87;31989;-60
2021/06/23 03:50:47;;;;;;;17.25;10.68;;;;;;;19.50;70.47;100355.36;2008502;87;33013;-60
2021/06/23 03:53:49;;;;;;;15.45;8.70;;;;;;;19.49;70.33;100349.08;1983000;89;30115;-59
2021/06/23 03:56:51;;;;;;;16.67;9.10;;;;;;;19.51;70.38;100351.17;1985360;87;27536;-57
2021/06/23 03:59:54;;;;;;;17.30;9.63;;;;;;;19.51;70.31;100355.24;1982611;89;28709;-59
2021/06/23 04:02:56;;;;;;;10.95;9.10;;;;;;;19.52;70.37;100357.45;1965352;89;31161;-58
2021/06/23 04:05:57;;;;;;;17.05;9.38;;;;;;;19.53;70.34;100360.02;2010769;87;32968;-60
2021/06/23 04:09:10;;;;;;;15.68;9.13;;;;;;;19.55;70.16;100367.55;2024385;87;29996;-57
2021/06/23 04:12:14;;;;;;;17.27;9.30;;;;;;;19.56;70.14;100369.27;1993504;87;27500;-60
2021/06/23 04:15:16;;;;;;;16.23;8.68;;;;;;;19.60;70.17;100369.89;2026966;86;28608;-58
2021/06/23 04:18:18;;;;;;;16.50;8.28;;;;;;;19.64;70.00;100367.76;2026754;87;31821;-59
2021/06/23 04:21:20;;;;;;;20.10;8.13;;;;;;;19.66;69.96;100374.77;1986384;87;33561;-60
2021/06/23 04:24:22;;;;;;;11.97;8.35;;;;;;;19.72;70.00;100377.45;1984936;89;29975;-60
2021/06/23 04:27:24;;;;;;;17.80;8.53;;;;;;;19.72;69.61;100370.17;1985516;89;27701;-60
2021/06/23 04:30:26;;;;;;;14.83;8.05;;;;;;;19.74;69.67;100362.75;1991406;87;29563;-60
2021/06/23 04:33:28;;;;;;;19.70;9.38;;;;;;;19.79;69.55;100363.70;2026703;87;31084;-60
2021/06/23 04:36:30;;;;;;;15.05;8.38;;;;;;;19.84;69.50;100366.00;2026666;87;32998;-59
2021/06/23 04:39:32;;;;;;;15.32;8.28;;;;;;;19.92;69.37;100373.03;2014211;87;29616;-60
2021/06/23 04:42:34;;;;;;;15.75;8.83;;;;;;;20.03;69.41;100382.45;2010831;87;27568;-60
2021/06/23 04:45:36;;;;;;;20.17;8.78;;;;;;;20.14;69.15;100386.06;2026508;87;29445;-59
2021/06/23 04:48:38;;;;;;;18.45;9.18;;;;;;;20.21;68.90;100383.66;2026530;87;31178;-59
2021/06/23 04:51:40;;;;;;;14.18;8.35;;;;;;;20.24;68.67;100384.27;1985587;87;33746;-59
2021/06/23 04:54:42;;;;;;;12.78;8.60;;;;;;;20.24;68.60;100390.19;1985557;89;29194;-59
2021/06/23 04:57:44;;;;;;;18.50;9.68;;;;;;;20.25;68.66;100397.36;1985654;89;27552;-59
2021/06/23 05:00:46;;;;;;;18.15;8.90;;;;;;;20.30;68.62;100405.98;2012752;87;28650;-59
2021/06/23 05:03:48;;;;;;;15.08;8.33;;;;;;;20.28;68.34;100413.41;2026665;87;31027;-59
2021/06/23 05:06:50;;;;;;;19.92;9.75;;;;;;;20.27;68.47;100418.49;2026593;87;33832;-59
2021/06/23 05:09:52;;;;;;;15.58;8.88;;;;;;;20.27;68.38;100434.81;2012405;87;29327;-59
2021/06/23 05:12:54;;;;;;;16.50;9.48;;;;;;;20.27;68.23;100434.81;1985569;89;27572;-59
2021/06/23 05:15:58;;;;;;;14.28;8.93;;;;;;;20.23;68.13;100432.00;1985605;89;28861;-60
2021/06/23 05:18:59;;;;;;;16.67;9.70;;;;;;;20.21;68.12;100434.87;1986871;87;31889;-59
2021/06/23 05:22:03;;;;;;;18.50;9.55;;;;;;;20.19;68.05;100439.06;2026580;87;33096;-59
2021/06/23 05:25:06;;;;;;;15.65;9.48;;;;;;;20.17;68.12;100438.84;2026927;87;29470;-60
2021/06/23 05:28:08;;;;;;;19.90;8.53;;;;;;;20.19;68.14;100441.78;2026970;87;27501;-59
2021/06/23 05:31:11;;;;;;;16.67;9.18;;;;;;;20.23;68.17;100447.84;1998105;87;28638;-58
2021/06/23 05:34:13;;;;;;;17.30;8.60;;;;;;;20.27;67.95;100459.30;1954131;90;31040;-60
2021/06/23 05:37:15;;;;;;;18.37;9.43;;;;;;;20.29;67.94;100468.20;1954041;91;33027;-60
2021/06/23 05:40:17;;;;;;;24.25;9.63;;;;;;;20.29;67.80;100463.59;2005231;87;29386;-59
2021/06/23 05:43:19;;;;;;;17.48;9.20;;;;;;;20.24;67.67;100467.73;1996629;87;27848;-60
2021/06/23 05:46:21;;;;;;;17.07;10.10;;;;;;;20.19;67.62;100470.86;1954139;90;29360;-59
2021/06/23 05:49:22;;;;;;;17.32;9.03;;;;;;;20.19;67.64;100480.38;1958787;89;31817;-60
2021/06/23 05:52:24;;;;;;;18.15;9.15;;;;;;;20.16;67.69;100492.41;2026912;87;33150;-60
2021/06/23 05:55:26;;;;;;;15.25;9.23;;;;;;;20.15;67.71;100491.16;2026906;87;29326;-60
2021/06/23 05:58:28;;;;;;;18.00;9.70;;;;;;;20.15;67.66;100496.59;2027030;87;27516;-60
2021/06/23 06:01:30;;;;;;;21.85;9.25;;;;;;;20.16;67.75;100501.05;1995473;87;28652;-57
2021/06/23 06:04:32;;;;;;;15.45;9.55;;;;;;;20.14;67.61;100504.39;1954061;91;31176;-57
2021/06/23 06:07:34;;;;;;;18.62;10.23;;;;;;;20.15;67.60;100503.40;1954048;91;33885;-57
2021/06/23 06:10:36;;;;;;;14.63;9.83;;;;;;;20.15;67.53;100496.12;2007298;87;29401;-59
2021/06/23 06:13:37;;;;;;;18.42;9.23;;;;;;;20.18;67.68;100499.05;2027096;87;27706;-59
2021/06/23 06:16:39;;;;;;;21.07;9.35;;;;;;;20.24;67.52;100497.66;2026966;87;28887;-59
2021/06/23 06:19:41;;;;;;;18.87;9.30;;;;;;;20.30;67.51;100499.84;2020534;87;31203;-60
2021/06/23 06:22:43;;;;;;;19.05;10.48;;;;;;;20.41;67.63;100505.20;1954262;90;33102;-65
2021/06/23 06:25:45;;;;;;;16.55;9.10;;;;;;;20.54;67.53;100496.81;1955965;90;30052;-67
2021/06/23 06:28:47;;;;;;;18.67;9.60;;;;;;;20.65;67.27;100504.03;1966079;89;27517;-69
2021/06/23 06:31:49;;;;;;;14.10;9.45;;;;;;;20.73;66.98;100516.44;1980269;89;28900;-68
2021/06/23 06:34:51;;;;;;;21.45;10.10;;;;;;;20.80;66.83;100519.51;1980509;89;31904;-67
2021/06/23 06:37:55;;;;;;;18.20;9.98;;;;;;;20.87;66.70;100522.05;2006610;87;32955;-67
2021/06/23 06:40:57;;;;;;;19.05;9.98;;;;;;;20.93;66.61;100520.12;2026735;87;29384;-60
2021/06/23 06:43:59;;;;;;;22.27;10.85;;;;;;;20.95;66.41;100514.04;2026686;87;27562;-60
2021/06/23 06:47:02;;;;;;;18.52;10.50;;;;;;;20.93;66.26;100521.48;2026544;87;28616;-59
2021/06/23 06:50:05;;;;;;;16.60;10.82;;;;;;;20.91;66.35;100520.78;1999687;87;31104;-60
2021/06/23 06:53:06;;;;;;;22.60;10.90;;;;;;;20.89;66.25;100534.16;2026547;87;33826;-59
2021/06/23 06:56:08;;;;;;;20.35;11.18;;;;;;;20.89;66.34;100543.21;2011232;87;29322;-59
2021/06/23 06:59:10;;;;;;;18.95;10.63;;;;;;;20.88;66.31;100551.50;1985469;88;27660;-58
2021/06/23 07:02:12;;;;;;;21.60;11.40;;;;;;;20.88;66.23;100558.30;1985389;89;29859;-59
2021/06/23 07:05:14;;;;;;;20.30;11.10;;;;;;;20.85;66.21;100564.05;1986919;87;31859;-58
2021/06/23 07:08:16;;;;;;;20.85;10.23;;;;;;;20.81;66.22;100558.51;2026251;87;33027;-57
2021/06/23 07:11:18;;;;;;;16.57;10.15;;;;;;;20.76;66.34;100551.60;2026606;87;29319;-59
2021/06/23 07:14:21;;;;;;;20.10;10.55;;;;;;;20.76;66.43;100552.97;2021696;87;27600;-59
2021/06/23 07:17:23;;;;;;;19.17;11.15;;;;;;;20.73;66.26;100542.83;2014832;87;28829;-60
2021/06/23 07:20:26;;;;;;;20.00;11.08;;;;;;;20.74;66.41;100539.95;1985672;89;31021;-60
2021/06/23 07:23:27;;;;;;;21.23;12.00;;;;;;;20.78;66.21;100527.83;1985140;89;33902;-60
2021/06/23 07:26:30;;;;;;;18.25;10.90;;;;;;;20.88;66.57;100521.06;2023599;87;29453;-59
2021/06/23 07:29:32;;;;;;;22.77;11.63;;;;;;;21.16;66.44;100510.38;2026358;87;27510;-59
2021/06/23 07:39:12;;;;;;;16.20;10.28;;;;;;;22.09;65.25;100510.50;1985428;89;33805;-59
2021/06/23 07:42:15;;;;;;;16.65;9.50;;;;;;;22.46;64.72;100502.91;1984088;89;29947;-60
2021/06/23 07:45:18;;;;;;;18.32;10.32;;;;;;;22.87;64.44;100504.80;1986221;87;28122;-60
2021/06/23 07:48:33;;;;;;;18.12;11.22;;;;;;;23.17;63.21;100510.11;1985326;89;28783;-59
2021/06/23 07:54:59;;;;;;;17.27;10.48;;;;;;;23.11;62.22;100529.34;1987814;87;33556;-59
2021/06/23 08:01:44;;;;;;;22.45;10.75;;;;;;;22.75;62.00;100540.16;2026783;87;27555;-59
2021/06/23 08:11:01;;;;;;;17.02;10.78;;;;;;;22.24;62.23;100536.84;1899788;93;32924;-64
2021/06/23 08:14:04;;;;;;;13.93;10.00;;;;;;;22.10;62.55;100534.89;1906617;91;31132;-59
2021/06/23 08:17:07;;;;;;;17.77;11.50;;;;;;;22.05;62.63;100541.31;1891908;92;27735;-59
2021/06/23 08:20:10;;;;;;;18.77;12.20;;;;;;;22.03;62.65;100545.17;1885663;94;28645;-59
2021/06/23 08:23:12;;;;;;;18.17;11.18;;;;;;;22.07;62.77;100551.58;1885418;93;31046;-59
2021/06/23 08:26:14;;;;;;;20.70;11.55;;;;;;;22.16;62.91;100551.22;1924848;92;33845;-59
2021/06/23 08:29:16;;;;;;;19.60;11.38;;;;;;;22.27;62.71;100560.59;1925727;92;29445;-59
2021/06/23 08:32:18;;;;;;;23.80;11.85;;;;;;;22.38;62.51;100566.89;1925780;92;27668;-59
2021/06/23 08:35:20;;;;;;;18.50;12.63;;;;;;;22.43;62.29;100567.35;1902023;92;29902;-59
2021/06/23 08:38:23;;;;;;;19.70;10.95;;;;;;;22.57;62.21;100568.24;1890009;93;31756;-59
2021/06/23 08:41:29;;;;;;;15.70;10.78;;;;;;;22.82;62.31;100559.05;1900412;92;33200;-59
2021/06/23 08:44:31;;;;;;;18.42;11.95;;;;;;;23.10;61.80;100563.16;1943568;90;30125;-60
2021/06/23 08:47:46;;;;;;;17.67;12.43;;;;;;;23.24;61.53;100556.36;2018519;87;27542;-60
2021/06/23 08:50:48;;;;;;;19.50;10.68;;;;;;;23.46;61.14;100554.19;1993889;89;28735;-60
2021/06/23 08:53:50;;;;;;;15.43;10.23;;;;;;;23.71;60.95;100558.56;1999465;87;30471;-60
2021/06/23 08:56:52;;;;;;;18.82;11.22;;;;;;;23.87;60.41;100554.61;2031861;86;33929;-61
2021/06/23 08:59:54;;;;;;;19.80;10.45;;;;;;;24.12;60.22;100563.92;2032474;87;29470;-60
2021/06/23 09:03:04;;;;;;;17.55;10.68;;;;;;;24.41;59.78;100566.88;2032660;87;27498;-60
2021/06/23 09:06:05;;;;;;;17.57;9.80;;;;;;;24.56;59.06;100567.65;1992590;87;28735;-60
2021/06/23 09:09:22;;;;;;;12.95;10.48;;;;;;;24.58;58.61;100573.83;1990678;87;31118;-61
2021/06/23 09:12:24;;;;;;;12.35;9.45;;;;;;;24.60;58.14;100573.16;2013703;87;33027;-60
2021/06/23 09:15:46;;;;;;;13.15;10.10;;;;;;;24.54;57.96;100567.82;2035848;87;29453;-59
2021/06/23 09:18:48;;;;;;;15.85;9.05;;;;;;;24.46;57.54;100574.59;2034329;87;27597;-61
2021/06/23 09:21:49;;;;;;;17.73;10.40;;;;;;;24.32;58.03;100569.22;2016237;87;28734;-60
2021/06/23 09:24:51;;;;;;;14.85;8.80;;;;;;;24.20;57.66;100570.47;2008922;87;31263;-59
2021/06/23 09:27:56;;;;;;;18.73;11.45;;;;;;;24.03;57.81;100576.33;1980114;89;33096;-60
2021/06/23 09:30:59;;;;;;;14.65;9.78;;;;;;;23.88;57.74;100569.14;2023406;87;29241;-60
2021/06/23 09:34:06;;;;;;;14.18;9.30;;;;;;;23.78;57.91;100576.92;2011963;87;27538;-59
2021/06/23 09:37:32;;;;;;;15.98;9.85;;;;;;;23.67;57.99;100569.80;1989732;89;29534;-59
2021/06/23 09:40:43;;;;;;;14.63;9.63;;;;;;;23.57;57.88;100570.89;1993804;89;45420;-59
2021/06/23 09:43:47;;;;;;;17.10;9.65;;;;;;;23.44;58.06;100569.39;2003825;87;33194;-60
2021/06/23 09:46:50;;;;;;;12.90;8.60;;;;;;;23.32;58.30;100567.38;1943213;90;29506;-59
2021/06/23 09:49:52;;;;;;;13.00;8.45;;;;;;;23.27;58.38;100564.23;1962118;90;27597;-60
2021/06/23 09:52:57;;;;;;;16.37;8.83;;;;;;;23.19;58.35;100572.31;1997708;89;28715;-59
2021/06/23 09:56:01;;;;;;;12.82;8.80;;;;;;;23.12;58.51;100581.62;1997529;89;31097;-59
2021/06/23 09:59:04;;;;;;;14.68;7.87;;;;;;;23.02;58.72;100585.77;2016861;87;33619;-62
2021/06/23 10:02:25;;;;;;;16.05;8.00;;;;;;;22.97;58.63;100596.80;2022737;87;30211;-59
2021/06/23 10:05:28;;;;;;;16.87;8.23;;;;;;;22.89;58.76;100601.65;1960629;90;27573;-60
2021/06/23 10:08:31;;;;;;;19.42;7.92;;;;;;;22.81;58.75;100616.05;1944882;90;29565;-60
2021/06/23 10:11:33;;;;;;;11.73;8.85;;;;;;;22.75;59.00;100617.48;1993977;89;30639;-60
2021/06/23 10:14:41;;;;;;;11.20;8.35;;;;;;;22.69;59.05;100609.90;1993960;89;33667;-60
2021/06/23 10:17:44;;;;;;;14.85;7.67;;;;;;;22.67;59.22;100607.81;1994006;89;29434;-59
2021/06/23 10:20:48;;;;;;;17.87;7.97;;;;;;;22.69;59.28;100610.39;1961351;89;27487;-59
2021/06/23 10:23:50;;;;;;;14.80;8.10;;;;;;;22.82;59.65;100609.58;2010715;87;28742;-59
2021/06/23 10:26:53;;;;;;;15.88;8.03;;;;;;;23.00;59.46;100599.23;1995701;87;30383;-59
2021/06/23 10:29:58;;;;;;;15.23;8.23;;;;;;;23.23;59.43;100602.96;1961217;89;33003;-60
2021/06/23 10:33:00;;;;;;;13.22;8.43;;;;;;;23.47;59.05;100600.54;1991169;89;29143;-59
2021/06/23 10:36:02;;;;;;;14.75;8.05;;;;;;;23.74;58.78;100595.19;1982565;89;27614;-59
2021/06/23 10:39:05;;;;;;;15.48;8.10;;;;;;;23.98;58.22;100590.49;1973737;89;28712;-59
2021/06/23 10:42:08;;;;;;;15.85;8.68;;;;;;;24.18;57.31;100582.95;1951380;91;31116;-60
2021/06/23 10:45:11;;;;;;;13.93;8.40;;;;;;;24.33;57.08;100575.53;2028858;87;33059;-59
2021/06/23 10:48:13;;;;;;;14.73;8.80;;;;;;;24.42;57.10;100576.81;2006825;87;29811;-60
2021/06/23 10:51:28;;;;;;;13.50;7.95;;;;;;;24.50;56.71;100579.23;2033009;87;27553;-60
2021/06/23 10:54:34;;;;;;;17.12;8.35;;;;;;;24.54;56.69;100581.52;2032779;87;28783;-60
2021/06/23 10:57:45;;;;;;;16.95;7.70;;;;;;;24.57;56.43;100588.55;1994535;89;31303;-60
2021/06/23 11:00:48;;;;;;;13.60;7.58;;;;;;;24.64;56.37;100592.87;1993218;87;33765;-59
2021/06/23 11:04:03;;;;;;;11.03;6.72;;;;;;;24.65;56.13;100596.83;1954064;90;30175;-59
2021/06/23 11:07:14;;;;;;;9.45;6.17;;;;;;;24.68;55.77;100598.38;1992884;87;27501;-58
2021/06/23 11:10:26;;;;;;;14.68;7.78;;;;;;;24.64;55.35;100591.00;1961479;89;28806;-59
2021/06/23 11:13:31;;;;;;;15.72;8.23;;;;;;;24.70;55.47;100594.48;1990350;89;32145;-60
2021/06/23 11:16:37;;;;;;;24.77;8.18;;;;;;;24.72;55.34;100584.75;1989714;89;33027;-58
2021/06/23 11:19:38;;;;;;;16.27;7.55;;;;;;;24.70;55.17;100594.48;1987186;89;30245;-59
2021/06/23 11:22:40;;;;;;;14.23;7.20;;;;;;;24.64;54.90;100588.75;1956645;90;27509;-60
2021/06/23 11:25:42;;;;;;;17.87;8.60;;;;;;;24.55;55.06;100590.58;1957148;90;28899;-57
2021/06/23 11:28:46;;;;;;;16.62;6.92;;;;;;;24.54;55.27;100590.23;1958140;91;31193;-57
2021/06/23 11:31:54;;;;;;;18.03;8.23;;;;;;;24.54;55.11;100599.81;1964906;90;33133;-57
2021/06/23 11:34:56;;;;;;;20.10;8.80;;;;;;;24.46;55.05;100592.92;1962544;90;29437;-57
2021/06/23 11:37:58;;;;;;;13.05;7.83;;;;;;;24.39;54.76;100589.45;1958144;91;27603;-58
2021/06/23 11:41:02;;;;;;;14.38;7.67;;;;;;;24.30;55.09;100594.52;1958093;91;29568;-58
2021/06/23 11:44:04;;;;;;;;;;;;;;;24.28;55.08;100597.92;1960448;91;31145;-58
2021/06/23 11:47:07;;;;;;;18.35;8.88;;;;;;;24.26;55.02;100593.11;1963924;90;33026;-57
2021/06/23 11:50:09;;;;;;;17.07;8.30;;;;;;;24.24;54.90;100593.78;1973663;89;29405;-57
2021/06/23 11:53:15;;;;;;;14.98;8.03;;;;;;;24.24;55.12;100595.15;1998789;89;27625;-58
2021/06/23 11:56:16;;;;;;;17.27;8.70;;;;;;;24.37;55.14;100590.11;1980649;89;28193;-58
2021/06/23 11:59:21;;;;;;;13.85;8.73;;;;;;;24.52;55.08;100584.05;1955471;91;31252;-60
2021/06/23 12:02:24;;;;;;;14.47;7.62;;;;;;;24.54;54.79;100576.04;1955421;91;33138;-58
2021/06/23 12:05:29;;;;;;;13.22;7.35;;;;;;;24.57;54.87;100572.11;1959443;89;29312;-59
2021/06/23 12:08:31;;;;;;;12.58;7.30;;;;;;;24.72;55.08;100579.27;1978690;89;27583;-58
2021/06/23 12:11:33;;;;;;;14.83;6.90;;;;;;;24.96;54.92;100576.30;1955572;89;28835;-58
2021/06/23 12:14:35;;;;;;;16.55;8.20;;;;;;;25.28;54.77;100582.94;1955353;91;31908;-58
2021/06/23 12:17:37;;;;;;;11.85;6.85;;;;;;;25.46;53.64;100574.64;1966947;89;33238;-59
2021/06/23 12:20:42;;;;;;;12.45;7.28;;;;;;;25.56;53.75;100582.20;1973843;89;29392;-58
2021/06/23 12:23:44;;;;;;;13.65;8.30;;;;;;;25.60;53.28;100588.20;1998861;88;27527;-58
2021/06/23 12:26:46;;;;;;;11.38;7.05;;;;;;;25.59;53.30;100588.73;2001950;87;28723;-58
2021/06/23 12:29:48;;;;;;;12.58;7.15;;;;;;;25.63;52.99;100586.00;1957259;89;32594;-58
2021/06/23 12:32:50;;;;;;;13.03;6.72;;;;;;;25.69;52.52;100587.22;1989267;87;32976;-58
2021/06/23 12:35:52;;;;;;;12.95;6.50;;;;;;;25.71;53.08;100576.05;1956666;89;29552;-58
2021/06/23 12:38:57;;;;;;;9.43;6.40;;;;;;;25.81;52.99;100574.53;1951009;91;27544;-58
2021/06/23 12:41:59;;;;;;;15.20;6.83;;;;;;;25.89;52.39;100574.55;1956179;90;28818;-58
2021/06/23 12:45:05;;;;;;;12.60;6.12;;;;;;;25.82;52.33;100583.11;1956158;91;31077;-57
2021/06/23 12:48:08;;;;;;;11.85;5.92;;;;;;;25.79;52.54;100586.53;2026180;87;33079;-58
2021/06/23 12:51:10;;;;;;;13.68;6.70;;;;;;;25.80;52.22;100583.29;2026927;87;29322;-58
2021/06/23 12:54:12;;;;;;;16.00;6.30;;;;;;;25.72;51.86;100584.14;2018167;87;27471;-58
2021/06/23 12:57:14;;;;;;;10.10;6.65;;;;;;;25.68;52.24;100571.77;1954177;90;28642;-58
2021/06/23 13:00:18;;;;;;;12.45;8.03;;;;;;;25.73;51.67;100569.36;1956352;89;31028;-58
2021/06/23 13:03:21;;;;;;;12.35;6.50;;;;;;;25.82;51.68;100577.62;2014182;88;33878;-58
2021/06/23 13:06:22;;;;;;;10.88;6.75;;;;;;;25.99;51.85;100572.49;2014087;88;29400;-58
2021/06/23 13:09:24;;;;;;;10.93;5.95;;;;;;;26.19;51.90;100570.28;2014149;88;27603;-58
2021/06/23 13:12:27;;;;;;;8.85;5.83;;;;;;;26.23;50.90;100567.55;2023534;87;29772;-58
2021/06/23 13:15:30;;;;;;;12.50;5.50;;;;;;;26.15;50.80;100562.03;1997186;87;31100;-58
2021/06/23 13:18:34;;;;;;;8.38;5.37;;;;;;;26.10;51.08;100560.31;1934608;91;29472;-58
2021/06/23 13:21:37;;;;;;;10.13;5.62;;;;;;;26.06;51.17;100563.89;1972051;89;29325;-58
2021/06/23 13:24:41;;;;;;;10.20;5.28;;;;;;;26.11;51.32;100569.39;2027240;87;27792;-58
2021/06/23 13:27:43;;;;;;;;;;;;;;;26.03;51.25;100569.75;1999622;87;29476;-58
2021/06/23 13:30:46;;;;;;;18.15;5.10;;;;;;;25.81;51.19;100581.39;1997795;87;31126;-58
2021/06/23 13:33:48;;;;;;;10.25;5.75;;;;;;;25.60;51.47;100587.70;2000602;89;33669;-65
2021/06/23 13:36:52;;;;;;;9.70;5.62;;;;;;;25.39;51.16;100579.03;2018631;87;29263;-70
2021/06/23 13:39:55;;;;;;;12.53;8.10;;;;;;;25.14;51.39;100574.32;2036595;87;27660;-66
2021/06/23 13:42:57;;;;;;;14.45;5.45;;;;;;;25.05;51.86;100570.34;2000922;87;28692;-58
2021/06/23 13:46:00;;;;;;;10.48;5.83;;;;;;;25.08;52.37;100571.38;2002851;87;31044;-59
2021/06/23 13:49:05;;;;;;;8.28;5.20;;;;;;;25.14;52.02;100563.36;2031281;87;33637;-59
2021/06/23 13:52:08;;;;;;;9.23;5.50;;;;;;;25.36;51.91;100563.78;1994168;88;29324;-58
2021/06/23 13:55:14;;;;;;;8.15;5.00;;;;;;;25.43;51.76;100564.84;2004786;87;27520;-58
2021/06/23 13:58:17;;;;;;;16.20;6.28;;;;;;;25.48;51.87;100572.06;2003660;87;28736;-58
2021/06/23 14:01:21;;;;;;;10.53;5.43;;;;;;;25.50;51.42;100571.89;1994529;89;30621;-58
2021/06/23 14:04:25;;;;;;;9.48;5.22;;;;;;;25.45;51.38;100568.81;1969170;89;29798;-58
2021/06/23 14:07:28;;;;;;;13.75;5.40;;;;;;;25.39;51.59;100570.80;2012655;87;29304;-58
2021/06/23 14:10:31;;;;;;;8.75;4.80;;;;;;;25.37;51.99;100572.85;2036568;87;27492;-58
2021/06/23 14:13:35;;;;;;;10.35;5.37;;;;;;;25.33;51.98;100567.69;2012562;87;28624;-58
2021/06/23 14:16:38;;;;;;;10.28;5.22;;;;;;;25.29;52.06;100567.70;2031339;87;31031;-58
2021/06/23 14:19:41;;;;;;;8.00;4.95;;;;;;;25.28;52.00;100563.73;2013998;87;33143;-58
2021/06/23 14:22:45;;;;;;;13.95;5.75;;;;;;;25.28;52.24;100570.10;2036574;87;28940;-58